createdAt,value
2019-03-25T00:00:47.097Z,7.92
2019-03-25T00:01:52.611Z,7.89
2019-03-25T00:02:58.112Z,7.92
2019-03-25T00:04:03.618Z,7.90
2019-03-25T00:05:09.137Z,7.92
2019-03-25T00:06:14.645Z,7.90
2019-03-25T00:07:21.050Z,7.82
2019-03-25T00:08:25.653Z,7.81
2019-03-25T00:09:31.160Z,7.85
2019-03-25T00:10:36.696Z,7.79
2019-03-25T00:11:42.190Z,7.82
2019-03-25T00:12:47.680Z,7.87
2019-03-25T00:13:53.188Z,7.81
2019-03-25T00:14:58.708Z,7.89
2019-03-25T00:16:04.206Z,7.84
2019-03-25T00:17:09.719Z,7.77
2019-03-25T00:18:15.219Z,7.78
2019-03-25T00:19:20.729Z,7.85
2019-03-25T00:20:26.241Z,7.87
2019-03-25T00:21:31.736Z,7.84
2019-03-25T00:22:37.259Z,7.82
2019-03-25T00:23:42.757Z,7.81
2019-03-25T00:24:48.276Z,7.82
2019-03-25T00:25:53.782Z,7.84
2019-03-25T00:26:59.282Z,7.85
2019-03-25T00:28:04.787Z,7.84
2019-03-25T00:29:10.296Z,7.87
2019-03-25T00:30:15.807Z,7.94
2019-03-25T00:31:21.310Z,7.96
2019-03-25T00:32:26.817Z,7.93
2019-03-25T00:33:32.333Z,7.96
2019-03-25T00:34:38.553Z,7.96
2019-03-25T00:35:43.348Z,7.96
2019-03-25T00:36:48.854Z,8.07
2019-03-25T00:37:54.366Z,8.07
2019-03-25T00:38:59.865Z,8.12
2019-03-25T00:40:05.374Z,8.07
2019-03-25T00:41:10.883Z,8.14
2019-03-25T00:42:16.390Z,8.14
2019-03-25T00:43:22.562Z,8.21
2019-03-25T00:44:28.046Z,8.22
2019-03-25T00:45:32.913Z,8.21
2019-03-25T00:46:38.431Z,8.22
2019-03-25T00:47:43.933Z,8.22
2019-03-25T00:48:49.431Z,8.17
2019-03-25T00:49:54.943Z,8.20
2019-03-25T00:51:00.449Z,8.17
2019-03-25T00:52:05.955Z,8.14
2019-03-25T00:53:11.461Z,8.28
2019-03-25T00:54:16.972Z,8.26
2019-03-25T00:55:22.469Z,8.28
2019-03-25T00:56:27.983Z,8.29
2019-03-25T00:57:33.493Z,8.30
2019-03-25T00:58:39.002Z,8.28
2019-03-25T00:59:44.508Z,8.22
2019-03-25T01:00:50.022Z,8.28
2019-03-25T01:01:55.527Z,8.26
2019-03-25T01:03:01.029Z,8.30
2019-03-25T01:04:06.537Z,8.30
2019-03-25T01:05:12.050Z,8.28
2019-03-25T01:06:17.553Z,8.36
2019-03-25T01:07:23.062Z,8.37
2019-03-25T01:08:28.569Z,8.42
2019-03-25T01:09:34.077Z,8.36
2019-03-25T01:10:39.585Z,8.40
2019-03-25T01:11:49.312Z,8.33
2019-03-25T01:12:50.603Z,8.30
2019-03-25T01:13:56.110Z,8.30
2019-03-25T01:15:01.616Z,8.30
2019-03-25T01:16:07.128Z,8.40
2019-03-25T01:17:12.651Z,8.30
2019-03-25T01:18:18.143Z,8.36
2019-03-25T01:19:23.648Z,8.32
2019-03-25T01:20:29.247Z,8.35
2019-03-25T01:21:34.666Z,8.33
2019-03-25T01:22:40.170Z,8.28
2019-03-25T01:23:45.689Z,8.39
2019-03-25T01:25:01.304Z,8.42
2019-03-25T01:25:56.698Z,8.44
2019-03-25T01:27:02.202Z,8.44
2019-03-25T01:28:07.715Z,8.45
2019-03-25T01:29:13.219Z,8.44
2019-03-25T01:30:18.729Z,8.47
2019-03-25T01:31:24.233Z,8.45
2019-03-25T01:32:29.742Z,8.47
2019-03-25T01:33:35.256Z,8.50
2019-03-25T01:34:40.758Z,8.50
2019-03-25T01:35:46.273Z,8.54
2019-03-25T01:36:51.777Z,8.42
2019-03-25T01:37:57.285Z,8.53
2019-03-25T01:39:02.792Z,8.51
2019-03-25T01:40:08.299Z,8.42
2019-03-25T01:41:13.806Z,8.45
2019-03-25T01:42:19.318Z,8.53
2019-03-25T01:43:24.841Z,8.44
2019-03-25T01:44:30.329Z,8.44
2019-03-25T01:45:35.841Z,8.53
2019-03-25T01:46:41.343Z,8.53
2019-03-25T01:47:46.857Z,8.50
2019-03-25T01:48:52.361Z,8.47
2019-03-25T01:49:57.872Z,8.55
2019-03-25T01:51:03.377Z,8.54
2019-03-25T01:52:08.893Z,8.57
2019-03-25T01:53:14.392Z,8.57
2019-03-25T01:54:19.912Z,8.62
2019-03-25T01:55:25.411Z,8.60
2019-03-25T01:56:30.914Z,8.62
2019-03-25T01:57:36.423Z,8.58
2019-03-25T01:58:41.931Z,8.63
2019-03-25T01:59:47.440Z,8.68
2019-03-25T02:00:52.952Z,8.68
2019-03-25T02:01:58.455Z,8.63
2019-03-25T02:03:03.965Z,8.68
2019-03-25T02:04:09.475Z,8.69
2019-03-25T02:05:14.980Z,8.68
2019-03-25T02:06:20.487Z,8.71
2019-03-25T02:07:25.995Z,8.72
2019-03-25T02:08:31.506Z,8.73
2019-03-25T02:09:37.018Z,8.86
2019-03-25T02:10:42.519Z,8.84
2019-03-25T02:11:48.026Z,8.81
2019-03-25T02:12:53.540Z,8.86
2019-03-25T02:13:59.046Z,8.81
2019-03-25T02:15:04.553Z,8.79
2019-03-25T02:16:10.058Z,8.86
2019-03-25T02:17:15.575Z,8.84
2019-03-25T02:18:21.078Z,8.84
2019-03-25T02:19:26.595Z,8.86
2019-03-25T02:20:32.093Z,8.78
2019-03-25T02:21:37.601Z,8.88
2019-03-25T02:22:43.304Z,8.84
2019-03-25T02:23:48.618Z,8.96
2019-03-25T02:24:54.123Z,8.94
2019-03-25T02:25:59.630Z,8.87
2019-03-25T02:27:05.144Z,8.93
2019-03-25T02:28:10.646Z,8.88
2019-03-25T02:29:16.158Z,8.96
2019-03-25T02:30:21.672Z,8.93
2019-03-25T02:31:27.185Z,8.90
2019-03-25T02:32:32.677Z,8.86
2019-03-25T02:33:38.190Z,8.91
2019-03-25T02:34:43.705Z,8.93
2019-03-25T02:35:49.207Z,8.88
2019-03-25T02:36:54.723Z,8.97
2019-03-25T02:38:00.225Z,8.96
2019-03-25T02:39:05.736Z,8.88
2019-03-25T02:40:11.241Z,8.90
2019-03-25T02:41:18.912Z,8.91
2019-03-25T02:42:22.263Z,8.90
2019-03-25T02:43:27.770Z,8.94
2019-03-25T02:44:33.274Z,8.93
2019-03-25T02:45:38.782Z,8.93
2019-03-25T02:46:44.301Z,8.97
2019-03-25T02:47:49.794Z,8.97
2019-03-25T02:48:55.308Z,8.87
2019-03-25T02:50:00.815Z,8.90
2019-03-25T02:51:06.319Z,8.86
2019-03-25T02:52:11.831Z,9.01
2019-03-25T02:53:17.336Z,8.97
2019-03-25T02:54:22.843Z,9.01
2019-03-25T02:55:40.852Z,8.97
2019-03-25T02:56:33.870Z,9.04
2019-03-25T02:57:39.372Z,9.01
2019-03-25T02:58:44.880Z,8.99
2019-03-25T02:59:50.387Z,9.06
2019-03-25T03:00:55.896Z,9.01
2019-03-25T03:02:01.405Z,9.06
2019-03-25T03:03:06.911Z,9.06
2019-03-25T03:04:12.421Z,8.97
2019-03-25T03:05:17.926Z,9.04
2019-03-25T03:06:23.442Z,9.01
2019-03-25T03:07:28.950Z,8.91
2019-03-25T03:08:34.450Z,9.06
2019-03-25T03:09:39.984Z,8.97
2019-03-25T03:10:45.466Z,9.02
2019-03-25T03:11:50.974Z,8.97
2019-03-25T03:12:56.483Z,8.97
2019-03-25T03:14:01.992Z,8.99
2019-03-25T03:15:07.502Z,8.94
2019-03-25T03:16:13.010Z,9.01
2019-03-25T03:17:18.523Z,8.93
2019-03-25T03:18:24.024Z,8.96
2019-03-25T03:19:29.536Z,9.02
2019-03-25T03:20:35.040Z,8.93
2019-03-25T03:21:40.648Z,8.99
2019-03-25T03:22:46.075Z,8.94
2019-03-25T03:23:51.566Z,9.06
2019-03-25T03:24:57.078Z,9.01
2019-03-25T03:26:02.581Z,9.01
2019-03-25T03:27:08.093Z,8.97
2019-03-25T03:28:13.603Z,8.99
2019-03-25T03:29:19.115Z,9.01
2019-03-25T03:30:24.616Z,8.99
2019-03-25T03:31:30.121Z,9.04
2019-03-25T03:32:35.636Z,9.04
2019-03-25T03:33:41.153Z,9.01
2019-03-25T03:34:46.659Z,8.94
2019-03-25T03:35:52.159Z,9.01
2019-03-25T03:36:57.671Z,9.06
2019-03-25T03:38:03.185Z,9.04
2019-03-25T03:39:08.682Z,9.06
2019-03-25T03:40:14.222Z,9.13
2019-03-25T03:41:19.696Z,9.10
2019-03-25T03:42:25.259Z,9.13
2019-03-25T03:43:30.718Z,9.10
2019-03-25T03:44:36.220Z,9.16
2019-03-25T03:45:41.733Z,9.13
2019-03-25T03:46:47.242Z,9.13
2019-03-25T03:47:52.752Z,9.13
2019-03-25T03:48:58.257Z,9.09
2019-03-25T03:50:03.764Z,9.10
2019-03-25T03:51:09.271Z,9.16
2019-03-25T03:52:14.783Z,9.13
2019-03-25T03:53:20.290Z,9.16
2019-03-25T03:54:25.793Z,9.25
2019-03-25T03:55:31.306Z,9.21
2019-03-25T03:56:36.826Z,9.21
2019-03-25T03:57:42.325Z,9.27
2019-03-25T03:58:47.833Z,9.16
2019-03-25T03:59:53.337Z,9.24
2019-03-25T04:00:58.850Z,9.24
2019-03-25T04:02:04.357Z,9.16
2019-03-25T04:03:09.871Z,9.20
2019-03-25T04:04:15.374Z,9.16
2019-03-25T04:05:20.880Z,9.30
2019-03-25T04:06:26.392Z,9.24
2019-03-25T04:07:31.902Z,9.28
2019-03-25T04:08:37.402Z,9.25
2019-03-25T04:09:42.916Z,9.28
2019-03-25T04:10:48.422Z,9.27
2019-03-25T04:11:53.927Z,9.28
2019-03-25T04:12:59.449Z,9.23
2019-03-25T04:14:04.948Z,9.23
2019-03-25T04:15:10.459Z,9.15
2019-03-25T04:16:15.974Z,9.12
2019-03-25T04:17:21.477Z,9.15
2019-03-25T04:18:26.984Z,9.04
2019-03-25T04:19:32.487Z,9.09
2019-03-25T04:20:37.998Z,9.02
2019-03-25T04:21:43.508Z,8.99
2019-03-25T04:22:49.011Z,8.94
2019-03-25T04:23:54.523Z,8.93
2019-03-25T04:25:00.032Z,8.87
2019-03-25T04:26:05.536Z,8.94
2019-03-25T04:27:11.045Z,8.86
2019-03-25T04:28:16.572Z,8.88
2019-03-25T04:29:22.076Z,8.86
2019-03-25T04:30:27.570Z,8.78
2019-03-25T04:31:33.081Z,8.75
2019-03-25T04:32:38.604Z,8.72
2019-03-25T04:33:44.096Z,8.71
2019-03-25T04:34:49.601Z,8.69
2019-03-25T04:35:55.118Z,8.66
2019-03-25T04:37:00.621Z,8.69
2019-03-25T04:38:06.125Z,8.63
2019-03-25T04:39:11.636Z,8.68
2019-03-25T04:40:17.146Z,8.66
2019-03-25T04:41:22.646Z,8.68
2019-03-25T04:42:28.158Z,8.65
2019-03-25T04:43:33.669Z,8.63
2019-03-25T04:44:39.172Z,8.48
2019-03-25T04:45:44.687Z,8.50
2019-03-25T04:46:50.187Z,8.54
2019-03-25T04:47:55.688Z,8.44
2019-03-25T04:49:01.221Z,8.48
2019-03-25T04:50:06.716Z,8.54
2019-03-25T04:51:12.224Z,8.60
2019-03-25T04:52:17.729Z,8.51
2019-03-25T04:53:23.234Z,8.51
2019-03-25T04:54:28.743Z,8.50
2019-03-25T04:55:34.251Z,8.47
2019-03-25T04:56:40.217Z,8.50
2019-03-25T04:57:45.273Z,8.39
2019-03-25T04:58:50.774Z,8.40
2019-03-25T04:59:56.281Z,8.45
2019-03-25T05:01:01.794Z,8.40
2019-03-25T05:02:07.299Z,8.37
2019-03-25T05:03:12.810Z,8.32
2019-03-25T05:04:18.314Z,8.35
2019-03-25T05:05:23.820Z,8.35
2019-03-25T05:06:29.328Z,8.33
2019-03-25T05:07:34.841Z,8.30
2019-03-25T05:08:40.340Z,8.30
2019-03-25T05:09:45.858Z,8.29
2019-03-25T05:10:51.355Z,8.28
2019-03-25T05:11:56.871Z,8.29
2019-03-25T05:13:02.377Z,8.28
2019-03-25T05:14:07.882Z,8.29
2019-03-25T05:15:13.391Z,8.28
2019-03-25T05:16:18.901Z,8.25
2019-03-25T05:17:24.408Z,8.28
2019-03-25T05:18:29.914Z,8.25
2019-03-25T05:19:35.422Z,8.35
2019-03-25T05:20:40.934Z,8.30
2019-03-25T05:21:46.449Z,8.28
2019-03-25T05:22:51.944Z,8.29
2019-03-25T05:23:57.461Z,8.26
2019-03-25T05:25:02.961Z,8.29
2019-03-25T05:26:08.467Z,8.29
2019-03-25T05:27:13.985Z,8.25
2019-03-25T05:28:19.482Z,8.28
2019-03-25T05:29:24.995Z,8.30
2019-03-25T05:30:30.500Z,8.30
2019-03-25T05:31:36.008Z,8.30
2019-03-25T05:32:41.513Z,8.33
2019-03-25T05:33:47.024Z,8.30
2019-03-25T05:34:52.532Z,8.37
2019-03-25T05:35:58.039Z,8.32
2019-03-25T05:37:03.546Z,8.35
2019-03-25T05:38:09.055Z,8.37
2019-03-25T05:39:14.564Z,8.36
2019-03-25T05:40:20.075Z,8.39
2019-03-25T05:41:25.576Z,8.42
2019-03-25T05:42:31.084Z,8.47
2019-03-25T05:43:36.593Z,8.40
2019-03-25T05:44:42.101Z,8.35
2019-03-25T05:45:47.605Z,8.42
2019-03-25T05:46:53.119Z,8.40
2019-03-25T05:47:58.621Z,8.39
2019-03-25T05:49:04.134Z,8.42
2019-03-25T05:50:09.640Z,8.40
2019-03-25T05:51:15.150Z,8.39
2019-03-25T05:52:20.658Z,8.42
2019-03-25T05:53:26.164Z,8.40
2019-03-25T05:54:31.675Z,8.37
2019-03-25T05:55:37.177Z,8.44
2019-03-25T05:56:42.690Z,8.36
2019-03-25T05:57:48.194Z,8.40
2019-03-25T05:58:53.705Z,8.39
2019-03-25T05:59:59.211Z,8.40
2019-03-25T06:01:04.717Z,8.44
2019-03-25T06:02:10.225Z,8.37
2019-03-25T06:03:15.738Z,8.45
2019-03-25T06:04:21.238Z,8.35
2019-03-25T06:05:26.752Z,8.36
2019-03-25T06:06:32.258Z,8.39
2019-03-25T06:07:37.769Z,8.45
2019-03-25T06:08:43.271Z,8.44
2019-03-25T06:09:48.783Z,8.50
2019-03-25T06:10:54.288Z,8.50
2019-03-25T06:11:59.802Z,8.44
2019-03-25T06:13:05.304Z,8.40
2019-03-25T06:14:10.809Z,8.40
2019-03-25T06:15:16.327Z,8.30
2019-03-25T06:16:21.832Z,8.35
2019-03-25T06:17:27.336Z,8.32
2019-03-25T06:18:32.844Z,8.25
2019-03-25T06:19:38.356Z,8.18
2019-03-25T06:20:43.861Z,8.14
2019-03-25T06:21:49.368Z,8.17
2019-03-25T06:22:54.877Z,8.20
2019-03-25T06:24:00.384Z,8.17
2019-03-25T06:25:05.894Z,8.17
2019-03-25T06:26:11.398Z,8.15
2019-03-25T06:27:16.907Z,8.22
2019-03-25T06:28:22.414Z,8.04
2019-03-25T06:29:27.922Z,8.04
2019-03-25T06:30:33.427Z,8.00
2019-03-25T06:31:38.956Z,8.00
2019-03-25T06:32:44.454Z,8.02
2019-03-25T06:33:49.953Z,8.02
2019-03-25T06:34:55.461Z,8.00
2019-03-25T06:36:00.965Z,8.02
2019-03-25T06:37:06.474Z,7.99
2019-03-25T06:38:11.982Z,7.93
2019-03-25T06:39:17.487Z,8.03
2019-03-25T06:40:22.996Z,7.94
2019-03-25T06:41:28.502Z,7.93
2019-03-25T06:42:34.012Z,7.90
2019-03-25T06:43:39.525Z,7.89
2019-03-25T06:44:45.023Z,7.96
2019-03-25T06:45:50.535Z,7.89
2019-03-25T06:46:56.043Z,7.89
2019-03-25T06:48:01.549Z,7.90
2019-03-25T06:49:07.058Z,7.92
2019-03-25T06:50:12.562Z,7.93
2019-03-25T06:51:18.070Z,7.90
2019-03-25T06:52:23.579Z,7.94
2019-03-25T06:53:29.083Z,7.94
2019-03-25T06:54:34.595Z,8.02
2019-03-25T06:55:40.099Z,7.99
2019-03-25T06:56:45.607Z,8.12
2019-03-25T06:57:51.115Z,8.11
2019-03-25T06:58:56.623Z,8.15
2019-03-25T07:00:02.133Z,8.15
2019-03-25T07:01:07.644Z,8.28
2019-03-25T07:02:13.152Z,8.25
2019-03-25T07:03:18.654Z,8.30
2019-03-25T07:04:24.160Z,8.32
2019-03-25T07:05:29.670Z,8.45
2019-03-25T07:06:35.181Z,8.42
2019-03-25T07:07:40.684Z,8.40
2019-03-25T07:08:46.193Z,8.57
2019-03-25T07:09:51.701Z,8.54
2019-03-25T07:10:57.209Z,8.54
2019-03-25T07:12:02.725Z,8.62
2019-03-25T07:13:08.223Z,8.58
2019-03-25T07:14:13.732Z,8.62
2019-03-25T07:15:19.239Z,8.60
2019-03-25T07:16:24.741Z,8.62
2019-03-25T07:17:30.254Z,8.66
2019-03-25T07:18:35.762Z,8.75
2019-03-25T07:19:41.273Z,8.63
2019-03-25T07:20:46.786Z,8.75
2019-03-25T07:21:52.286Z,8.84
2019-03-25T07:22:57.793Z,8.78
2019-03-25T07:24:03.301Z,8.83
2019-03-25T07:25:08.823Z,8.75
2019-03-25T07:26:14.321Z,8.83
2019-03-25T07:27:19.828Z,8.86
2019-03-25T07:28:25.329Z,8.94
2019-03-25T07:29:30.845Z,8.96
2019-03-25T07:30:36.347Z,8.91
2019-03-25T07:31:41.854Z,8.90
2019-03-25T07:32:47.362Z,8.88
2019-03-25T07:33:52.873Z,8.94
2019-03-25T07:34:58.377Z,8.90
2019-03-25T07:36:03.888Z,8.90
2019-03-25T07:37:09.392Z,8.99
2019-03-25T07:38:14.903Z,8.97
2019-03-25T07:39:20.417Z,8.99
2019-03-25T07:40:25.916Z,9.01
2019-03-25T07:41:31.440Z,9.10
2019-03-25T07:42:36.952Z,9.12
2019-03-25T07:43:42.443Z,9.15
2019-03-25T07:44:47.948Z,9.16
2019-03-25T07:45:53.462Z,9.16
2019-03-25T07:46:58.967Z,9.12
2019-03-25T07:48:04.477Z,9.15
2019-03-25T07:49:09.988Z,9.15
2019-03-25T07:50:15.497Z,9.12
2019-03-25T07:51:21.000Z,9.21
2019-03-25T07:52:26.513Z,9.21
2019-03-25T07:53:32.040Z,9.24
2019-03-25T07:54:37.532Z,9.20
2019-03-25T07:55:43.033Z,9.21
2019-03-25T07:56:48.538Z,9.30
2019-03-25T07:57:54.049Z,9.30
2019-03-25T07:58:59.558Z,9.28
2019-03-25T08:00:13.388Z,9.27
2019-03-25T08:01:10.589Z,9.27
2019-03-25T08:02:16.100Z,9.30
2019-03-25T08:03:21.591Z,9.31
2019-03-25T08:04:27.096Z,9.28
2019-03-25T08:05:32.613Z,9.32
2019-03-25T08:06:38.128Z,9.28
2019-03-25T08:07:43.645Z,9.30
2019-03-25T08:08:49.138Z,9.28
2019-03-25T08:09:54.639Z,9.27
2019-03-25T08:11:00.159Z,9.27
2019-03-25T08:12:05.657Z,9.35
2019-03-25T08:13:11.238Z,9.38
2019-03-25T08:14:16.678Z,9.34
2019-03-25T08:15:22.221Z,9.38
2019-03-25T08:16:27.686Z,9.38
2019-03-25T08:17:33.198Z,9.45
2019-03-25T08:18:38.709Z,9.42
2019-03-25T08:19:44.215Z,9.49
2019-03-25T08:20:49.719Z,9.32
2019-03-25T08:21:55.228Z,9.34
2019-03-25T08:23:00.741Z,9.38
2019-03-25T08:24:06.258Z,9.34
2019-03-25T08:25:11.751Z,9.32
2019-03-25T08:26:17.260Z,9.35
2019-03-25T08:27:22.778Z,9.35
2019-03-25T08:28:28.278Z,9.34
2019-03-25T08:29:33.788Z,9.34
2019-03-25T08:30:39.302Z,9.34
2019-03-25T08:31:44.807Z,9.34
2019-03-25T08:32:50.320Z,9.32
2019-03-25T08:33:55.827Z,9.32
2019-03-25T08:35:01.342Z,9.30
2019-03-25T08:36:06.848Z,9.32
2019-03-25T08:37:12.343Z,9.38
2019-03-25T08:38:17.854Z,9.32
2019-03-25T08:39:23.358Z,9.30
2019-03-25T08:40:28.865Z,9.20
2019-03-25T08:41:34.381Z,9.12
2019-03-25T08:42:39.885Z,9.01
2019-03-25T08:43:45.393Z,8.87
2019-03-25T08:44:50.897Z,8.65
2019-03-25T08:45:56.411Z,8.50
2019-03-25T08:47:01.915Z,8.45
2019-03-25T08:48:07.429Z,8.33
2019-03-25T08:49:12.931Z,8.25
2019-03-25T08:50:18.442Z,8.21
2019-03-25T08:51:23.949Z,8.22
2019-03-25T08:52:29.454Z,8.20
2019-03-25T08:53:34.967Z,8.10
2019-03-25T08:54:40.483Z,7.99
2019-03-25T08:55:45.979Z,8.00
2019-03-25T08:56:51.487Z,7.96
2019-03-25T08:57:56.992Z,7.97
2019-03-25T08:59:02.505Z,7.99
2019-03-25T09:00:08.008Z,8.02
2019-03-25T09:01:13.517Z,7.92
2019-03-25T09:02:19.034Z,7.97
2019-03-25T09:03:24.530Z,7.97
2019-03-25T09:04:30.037Z,8.04
2019-03-25T09:05:35.551Z,8.04
2019-03-25T09:06:41.059Z,8.15
2019-03-25T09:07:46.568Z,8.21
2019-03-25T09:08:52.077Z,8.18
2019-03-25T09:09:57.573Z,8.15
2019-03-25T09:11:03.086Z,8.32
2019-03-25T09:12:08.587Z,8.37
2019-03-25T09:13:14.095Z,8.42
2019-03-25T09:14:19.611Z,8.45
2019-03-25T09:15:25.109Z,8.54
2019-03-25T09:16:30.619Z,8.63
2019-03-25T09:17:36.133Z,8.71
2019-03-25T09:18:41.636Z,8.58
2019-03-25T09:19:47.140Z,8.81
2019-03-25T09:20:52.661Z,8.84
2019-03-25T09:21:58.167Z,8.96
2019-03-25T09:23:03.665Z,8.91
2019-03-25T09:24:09.170Z,9.01
2019-03-25T09:25:14.698Z,9.04
2019-03-25T09:26:20.198Z,9.05
2019-03-25T09:27:25.690Z,9.12
2019-03-25T09:28:31.231Z,9.09
2019-03-25T09:29:36.713Z,9.13
2019-03-25T09:30:42.221Z,9.21
2019-03-25T09:31:47.728Z,9.20
2019-03-25T09:32:53.245Z,9.21
2019-03-25T09:33:58.747Z,9.40
2019-03-25T09:35:04.252Z,9.42
2019-03-25T09:36:09.762Z,9.43
2019-03-25T09:37:15.372Z,9.56
2019-03-25T09:38:20.779Z,9.52
2019-03-25T09:39:26.292Z,9.66
2019-03-25T09:40:31.798Z,9.66
2019-03-25T09:41:37.304Z,9.64
2019-03-25T09:42:42.813Z,9.70
2019-03-25T09:43:48.316Z,9.63
2019-03-25T09:44:53.823Z,9.67
2019-03-25T09:45:59.335Z,9.78
2019-03-25T09:47:04.847Z,9.79
2019-03-25T09:48:10.350Z,9.86
2019-03-25T09:49:15.893Z,10.00
2019-03-25T09:50:21.367Z,9.99
2019-03-25T09:51:26.872Z,9.99
2019-03-25T09:52:38.574Z,9.99
2019-03-25T09:53:37.890Z,10.14
2019-03-25T09:54:43.400Z,10.22
2019-03-25T09:55:48.914Z,10.25
2019-03-25T09:56:54.412Z,10.32
2019-03-25T09:57:59.931Z,10.40
2019-03-25T09:59:05.429Z,10.37
2019-03-25T10:00:10.948Z,10.34
2019-03-25T10:01:16.451Z,10.39
2019-03-25T10:02:21.955Z,10.24
2019-03-25T10:03:27.459Z,10.22
2019-03-25T10:04:32.974Z,10.07
2019-03-25T10:05:38.482Z,10.12
2019-03-25T10:06:43.995Z,10.04
2019-03-25T10:07:49.516Z,9.99
2019-03-25T10:08:55.016Z,10.01
2019-03-25T10:10:00.523Z,10.03
2019-03-25T10:11:06.029Z,9.97
2019-03-25T10:12:11.542Z,9.82
2019-03-25T10:13:17.043Z,9.67
2019-03-25T10:14:22.550Z,9.70
2019-03-25T10:15:28.053Z,9.66
2019-03-25T10:16:33.576Z,9.81
2019-03-25T10:17:39.075Z,9.79
2019-03-25T10:18:44.587Z,9.76
2019-03-25T10:19:50.097Z,9.75
2019-03-25T10:20:55.605Z,9.67
2019-03-25T10:22:01.119Z,9.66
2019-03-25T10:23:06.629Z,9.81
2019-03-25T10:24:12.136Z,9.79
2019-03-25T10:25:17.644Z,9.85
2019-03-25T10:26:23.149Z,9.93
2019-03-25T10:27:28.662Z,10.03
2019-03-25T10:28:34.165Z,10.04
2019-03-25T10:29:39.673Z,10.25
2019-03-25T10:30:45.182Z,10.21
2019-03-25T10:31:50.688Z,10.21
2019-03-25T10:32:56.195Z,10.15
2019-03-25T10:34:01.704Z,10.01
2019-03-25T10:35:07.218Z,10.03
2019-03-25T10:36:12.724Z,9.89
2019-03-25T10:37:18.231Z,9.96
2019-03-25T10:38:23.745Z,9.82
2019-03-25T10:39:29.249Z,9.83
2019-03-25T10:40:34.757Z,9.78
2019-03-25T10:41:40.268Z,9.64
2019-03-25T10:42:45.773Z,9.58
2019-03-25T10:43:51.283Z,9.56
2019-03-25T10:44:56.791Z,9.52
2019-03-25T10:46:02.309Z,9.57
2019-03-25T10:47:07.806Z,9.50
2019-03-25T10:48:13.315Z,9.64
2019-03-25T10:49:18.828Z,9.64
2019-03-25T10:50:24.332Z,9.66
2019-03-25T10:51:29.842Z,9.75
2019-03-25T10:52:35.379Z,9.85
2019-03-25T10:53:40.859Z,9.81
2019-03-25T10:54:46.507Z,9.94
2019-03-25T10:55:51.876Z,9.86
2019-03-25T10:56:57.379Z,9.99
2019-03-25T10:58:02.890Z,10.01
2019-03-25T10:59:08.405Z,10.00
2019-03-25T11:00:13.910Z,9.96
2019-03-25T11:01:19.417Z,10.04
2019-03-25T11:02:24.924Z,10.06
2019-03-25T11:03:30.425Z,10.15
2019-03-25T11:04:35.943Z,10.24
2019-03-25T11:05:41.468Z,10.37
2019-03-25T11:06:46.961Z,10.46
2019-03-25T11:07:52.472Z,10.63
2019-03-25T11:08:57.973Z,10.62
2019-03-25T11:10:03.486Z,10.74
2019-03-25T11:11:08.990Z,10.73
2019-03-25T11:12:14.503Z,10.81
2019-03-25T11:13:20.008Z,10.80
2019-03-25T11:14:25.518Z,10.68
2019-03-25T11:15:31.027Z,10.78
2019-03-25T11:16:36.534Z,10.71
2019-03-25T11:17:42.044Z,10.71
2019-03-25T11:18:47.560Z,10.62
2019-03-25T11:19:53.065Z,10.33
2019-03-25T11:20:58.575Z,10.17
2019-03-25T11:22:04.084Z,9.91
2019-03-25T11:23:09.592Z,9.57
2019-03-25T11:24:15.287Z,9.31
2019-03-25T11:25:20.605Z,9.18
2019-03-25T11:26:26.131Z,8.96
2019-03-25T11:27:31.631Z,8.99
2019-03-25T11:28:37.130Z,8.86
2019-03-25T11:29:42.646Z,8.79
2019-03-25T11:30:48.154Z,8.84
2019-03-25T11:31:53.659Z,8.63
2019-03-25T11:32:59.166Z,8.62
2019-03-25T11:34:04.677Z,8.86
2019-03-25T11:35:10.194Z,8.88
2019-03-25T11:36:15.730Z,8.87
2019-03-25T11:37:21.201Z,9.02
2019-03-25T11:38:26.705Z,9.16
2019-03-25T11:39:32.215Z,9.23
2019-03-25T11:40:37.718Z,9.28
2019-03-25T11:41:43.230Z,9.40
2019-03-25T11:42:48.743Z,9.43
2019-03-25T11:43:54.245Z,9.35
2019-03-25T11:44:59.755Z,9.40
2019-03-25T11:46:05.259Z,9.53
2019-03-25T11:47:10.769Z,9.48
2019-03-25T11:48:16.290Z,9.46
2019-03-25T11:49:21.802Z,9.60
2019-03-25T11:50:27.299Z,9.52
2019-03-25T11:51:32.814Z,9.57
2019-03-25T11:52:38.311Z,9.57
2019-03-25T11:53:43.822Z,9.52
2019-03-25T11:54:49.327Z,9.52
2019-03-25T11:55:54.845Z,9.52
2019-03-25T11:57:00.339Z,9.68
2019-03-25T11:58:05.849Z,9.67
2019-03-25T11:59:18.260Z,9.79
2019-03-25T12:00:16.868Z,9.82
2019-03-25T12:01:22.388Z,9.93
2019-03-25T12:02:27.888Z,9.96
2019-03-25T12:03:33.391Z,10.12
2019-03-25T12:04:38.900Z,10.21
2019-03-25T12:05:44.410Z,10.36
2019-03-25T12:06:49.932Z,10.42
2019-03-25T12:07:55.434Z,10.58
2019-03-25T12:09:00.926Z,10.68
2019-03-25T12:10:06.454Z,10.68
2019-03-25T12:11:11.958Z,10.74
2019-03-25T12:12:17.460Z,10.92
2019-03-25T12:13:22.985Z,11.01
2019-03-25T12:14:28.470Z,11.06
2019-03-25T12:15:33.996Z,11.20
2019-03-25T12:16:39.493Z,11.32
2019-03-25T12:17:45.004Z,11.32
2019-03-25T12:18:50.515Z,11.47
2019-03-25T12:19:56.023Z,11.57
2019-03-25T12:21:01.530Z,11.65
2019-03-25T12:22:07.041Z,11.71
2019-03-25T12:23:12.543Z,11.74
2019-03-25T12:24:18.064Z,11.57
2019-03-25T12:30:07.931Z,11.13
2019-03-25T12:31:13.418Z,11.01
2019-03-25T12:33:11.814Z,11.17
2019-03-25T12:34:17.378Z,11.38
2019-03-25T12:36:16.138Z,11.49
2019-03-25T12:37:21.620Z,11.54
2019-03-25T12:39:31.552Z,11.50
2019-03-25T12:40:37.060Z,11.56
2019-03-25T12:41:42.567Z,11.65
2019-03-25T12:42:48.076Z,11.72
2019-03-25T12:43:53.586Z,11.70
2019-03-25T12:44:59.094Z,11.87
2019-03-25T12:46:04.604Z,11.96
2019-03-25T12:47:10.112Z,12.06
2019-03-25T12:48:15.616Z,12.06
2019-03-25T12:49:21.129Z,12.20
2019-03-25T12:50:26.645Z,12.30
2019-03-25T12:51:32.153Z,12.23
2019-03-25T12:52:37.652Z,12.29
2019-03-25T12:53:43.161Z,12.45
2019-03-25T12:54:48.671Z,12.59
2019-03-25T12:55:54.182Z,12.67
2019-03-25T12:56:59.690Z,13.00
2019-03-25T12:58:07.373Z,13.14
2019-03-25T12:59:10.703Z,13.21
2019-03-25T13:00:16.232Z,13.24
2019-03-25T13:01:21.728Z,13.25
2019-03-25T13:02:27.229Z,13.12
2019-03-25T13:03:32.748Z,13.03
2019-03-25T13:04:38.253Z,13.02
2019-03-25T13:05:43.779Z,12.74
2019-03-25T13:06:49.272Z,12.71
2019-03-25T13:07:54.782Z,12.51
2019-03-25T13:09:00.374Z,12.39
2019-03-25T13:10:05.801Z,12.27
2019-03-25T13:11:11.318Z,12.19
2019-03-25T13:12:16.818Z,12.01
2019-03-25T13:13:22.327Z,11.90
2019-03-25T13:14:27.849Z,11.71
2019-03-25T13:15:33.355Z,11.57
2019-03-25T13:16:38.854Z,11.41
2019-03-25T13:17:44.365Z,11.32
2019-03-25T13:18:49.877Z,11.14
2019-03-25T13:19:55.383Z,10.96
2019-03-25T13:21:00.908Z,10.89
2019-03-25T13:22:06.402Z,10.83
2019-03-25T13:23:11.907Z,10.74
2019-03-25T13:24:17.424Z,10.73
2019-03-25T13:25:22.936Z,10.71
2019-03-25T13:26:28.445Z,10.58
2019-03-25T13:27:33.949Z,10.58
2019-03-25T13:28:39.464Z,10.56
2019-03-25T13:29:52.635Z,10.40
2019-03-25T13:30:50.478Z,10.34
2019-03-25T13:31:55.988Z,10.25
2019-03-25T13:33:01.500Z,10.00
2019-03-25T13:34:07.017Z,9.89
2019-03-25T13:35:12.534Z,9.73
2019-03-25T13:36:18.025Z,9.67
2019-03-25T13:37:23.537Z,9.58
2019-03-25T13:38:29.048Z,10.06
2019-03-25T13:39:34.551Z,10.71
2019-03-25T13:40:40.050Z,12.54
2019-03-25T13:41:45.568Z,13.00
2019-03-25T13:42:51.077Z,13.56
2019-03-25T13:43:56.591Z,13.32
2019-03-25T13:45:02.106Z,12.96
2019-03-25T13:46:07.617Z,12.75
2019-03-25T13:47:13.128Z,13.80
2019-03-25T13:48:18.637Z,14.16
2019-03-25T13:49:24.152Z,13.92
2019-03-25T13:50:29.659Z,14.13
2019-03-25T13:51:35.167Z,14.39
2019-03-25T13:52:40.670Z,14.12
2019-03-25T13:53:46.183Z,13.83
2019-03-25T13:54:51.697Z,13.54
2019-03-25T13:55:57.208Z,13.32
2019-03-25T13:57:02.722Z,13.18
2019-03-25T13:58:08.252Z,12.97
2019-03-25T13:59:13.734Z,12.79
2019-03-25T14:00:19.251Z,12.59
2019-03-25T14:01:24.758Z,12.39
2019-03-25T14:02:30.271Z,12.16
2019-03-25T14:03:35.778Z,11.89
2019-03-25T14:04:41.293Z,11.85
2019-03-25T14:05:46.803Z,11.68
2019-03-25T14:06:52.317Z,11.70
2019-03-25T14:07:57.829Z,11.47
2019-03-25T14:09:03.346Z,11.52
2019-03-25T14:10:08.847Z,11.62
2019-03-25T14:11:14.364Z,11.71
2019-03-25T14:12:19.874Z,11.78
2019-03-25T14:13:25.379Z,11.89
2019-03-25T14:14:30.888Z,11.87
2019-03-25T14:15:36.405Z,11.67
2019-03-25T14:16:41.909Z,11.57
2019-03-25T14:17:47.430Z,11.56
2019-03-25T14:18:52.927Z,11.41
2019-03-25T14:19:58.447Z,11.50
2019-03-25T14:21:03.949Z,11.54
2019-03-25T14:22:09.455Z,11.57
2019-03-25T14:23:14.970Z,11.57
2019-03-25T14:24:20.479Z,11.57
2019-03-25T14:25:25.993Z,11.61
2019-03-25T14:26:31.499Z,11.70
2019-03-25T14:27:37.007Z,11.71
2019-03-25T14:28:42.517Z,11.71
2019-03-25T14:29:48.025Z,11.75
2019-03-25T14:30:53.550Z,11.82
2019-03-25T14:31:59.048Z,11.78
2019-03-25T14:33:04.553Z,11.87